Time;durP1;ratioP1;P1;durP2;ratioP2;P2;SDS_P1;SDS_P2;PMS_P1;PMS_P2;Temp;Humidity;BMP_temperature;BMP_pressure;BME280_temperature;BME280_humidity;BME280_pressure;Samples;Min_cycle;Max_cycle;Signal;HPM_P1;HPM_P2
2022/08/28 00:01:42;;;;;;;14.25;4.13;;;13.50;99.90;;;;;;4983599;28;20050;-88
2022/08/28 00:04:08;;;;;;;13.60;4.15;;;13.40;99.90;;;;;;4976489;28;20061;-88
2022/08/28 00:06:34;;;;;;;11.73;4.22;;;13.80;99.90;;;;;;4976253;28;20149;-88
2022/08/28 00:08:59;;;;;;;11.93;3.90;;;13.30;99.90;;;;;;4998884;28;20128;-88
2022/08/28 00:11:25;;;;;;;14.15;4.00;;;13.20;99.90;;;;;;4980232;28;20038;-88
2022/08/28 00:13:50;;;;;;;12.60;3.60;;;13.20;99.90;;;;;;4977236;28;20046;-88
2022/08/28 00:16:17;;;;;;;9.77;3.72;;;13.80;99.90;;;;;;4976314;28;20034;-88
2022/08/28 00:18:43;;;;;;;12.40;4.22;;;13.10;99.90;;;;;;4975999;28;20081;-88
2022/08/28 00:21:09;;;;;;;13.48;4.15;;;13.00;99.90;;;;;;4976336;28;20041;-88
2022/08/28 00:23:35;;;;;;;13.48;4.40;;;13.40;99.90;;;;;;4976783;28;20136;-88
2022/08/28 00:26:01;;;;;;;14.30;4.10;;;13.40;99.90;;;;;;4999430;28;20042;-88
2022/08/28 00:28:28;;;;;;;10.95;3.90;;;12.90;99.90;;;;;;5000249;28;20046;-88
2022/08/28 00:30:57;;;;;;;15.25;4.53;;;12.90;99.90;;;;;;4977464;28;20054;-88
2022/08/28 00:33:34;;;;;;;11.50;3.75;;;12.90;99.90;;;;;;4995770;28;20045;-88
2022/08/28 00:36:01;;;;;;;11.90;4.20;;;12.80;99.90;;;;;;4992048;28;20042;-88
2022/08/28 00:38:27;;;;;;;13.13;4.00;;;12.80;99.90;;;;;;4977161;28;20073;-88
2022/08/28 00:40:57;;;;;;;12.68;3.92;;;12.80;99.90;;;;;;4976479;28;20482;-88
2022/08/28 00:43:34;;;;;;;14.13;4.13;;;12.70;99.90;;;;;;4975818;28;20046;-88
2022/08/28 00:46:01;;;;;;;12.68;4.00;;;12.70;99.90;;;;;;4976221;28;20113;-88
2022/08/28 00:48:27;;;;;;;12.32;4.38;;;12.60;99.90;;;;;;4975746;28;20221;-88
2022/08/28 00:53:38;;;;;;;12.90;4.50;;;12.60;99.90;;;;;;4993051;28;20050;-88
2022/08/28 00:56:07;;;;;;;15.50;4.45;;;12.60;99.90;;;;;;4976384;28;20089;-88
2022/08/28 00:58:33;;;;;;;13.02;4.35;;;12.50;99.90;;;;;;4993646;28;20049;-88
2022/08/28 01:00:59;;;;;;;16.17;4.80;;;12.50;99.90;;;;;;4975315;28;20042;-88
2022/08/28 01:03:26;;;;;;;13.18;4.03;;;13.00;99.90;;;;;;4975999;28;20043;-88
2022/08/28 01:05:51;;;;;;;12.43;4.50;;;12.40;99.90;;;;;;4976338;28;20042;-87
2022/08/28 01:08:21;;;;;;;10.48;4.25;;;12.60;99.90;;;;;;4975102;28;20057;-88
2022/08/28 01:10:51;;;;;;;13.02;4.45;;;12.40;99.90;;;;;;4993737;28;20049;-88
2022/08/28 01:13:17;;;;;;;15.15;4.40;;;12.40;99.90;;;;;;4975242;28;20066;-88
2022/08/28 01:15:43;;;;;;;14.68;4.63;;;12.40;99.90;;;;;;4975893;28;20050;-88
2022/08/28 01:18:14;;;;;;;12.20;4.22;;;12.30;99.90;;;;;;4993615;28;20069;-88
2022/08/28 01:20:46;;;;;;;13.02;4.40;;;12.30;99.90;;;;;;4975326;28;20043;-88
2022/08/28 01:23:34;;;;;;;11.68;4.07;;;12.30;99.90;;;;;;4976096;28;20537;-88
2022/08/28 01:26:00;;;;;;;12.55;4.53;;;12.30;99.90;;;;;;4975836;28;20062;-88
2022/08/28 01:28:25;;;;;;;14.23;4.78;;;12.20;99.90;;;;;;4992819;28;20043;-88
2022/08/28 01:30:51;;;;;;;12.57;4.00;;;12.20;99.90;;;;;;4994826;28;20124;-88
2022/08/28 01:33:18;;;;;;;12.00;4.18;;;12.20;99.90;;;;;;4980579;28;20074;-88
2022/08/28 01:35:46;;;;;;;15.65;4.28;;;12.20;99.90;;;;;;4978846;28;20050;-88
2022/08/28 01:38:13;;;;;;;12.15;4.03;;;12.20;99.90;;;;;;4997542;28;20038;-88
2022/08/28 01:40:45;;;;;;;13.68;4.22;;;12.20;99.90;;;;;;4996863;28;20046;-88
2022/08/28 01:43:15;;;;;;;15.00;3.90;;;12.20;99.90;;;;;;4979814;28;20089;-88
2022/08/28 01:45:44;;;;;;;12.32;3.88;;;12.10;99.90;;;;;;4979439;28;20086;-88
2022/08/28 01:48:12;;;;;;;11.77;3.90;;;12.10;99.90;;;;;;4997151;28;20061;-88
2022/08/28 01:50:38;;;;;;;14.38;4.35;;;12.90;99.90;;;;;;4995960;28;20038;-88
2022/08/28 01:53:06;;;;;;;13.77;4.30;;;12.10;99.90;;;;;;4979090;28;20042;-88
2022/08/28 01:55:34;;;;;;;10.77;4.03;;;12.10;99.90;;;;;;4978325;28;20046;-88
2022/08/28 01:58:02;;;;;;;12.80;4.20;;;12.10;99.90;;;;;;4983853;28;20062;-88
2022/08/28 02:00:28;;;;;;;12.95;4.00;;;12.00;99.90;;;;;;4978763;28;20054;-88
2022/08/28 02:02:57;;;;;;;14.13;4.20;;;12.00;99.90;;;;;;4992390;28;20042;-88
2022/08/28 02:05:29;;;;;;;13.57;3.78;;;12.00;99.90;;;;;;4991583;28;20043;-87
2022/08/28 02:07:56;;;;;;;13.27;4.50;;;12.00;99.90;;;;;;5000048;28;20054;-88
2022/08/28 02:10:24;;;;;;;11.27;4.50;;;12.00;99.90;;;;;;4993500;28;20026;-88
2022/08/28 02:12:51;;;;;;;12.27;4.25;;;12.50;99.90;;;;;;5010500;28;20042;-88
2022/08/28 02:15:17;;;;;;;12.65;3.80;;;11.90;99.90;;;;;;4996822;28;20483;-88
2022/08/28 02:17:42;;;;;;;12.52;4.28;;;12.00;99.90;;;;;;4979023;28;20447;-88
2022/08/28 02:20:08;;;;;;;14.80;4.20;;;11.90;99.90;;;;;;4979101;28;20050;-88
2022/08/28 02:22:35;;;;;;;14.60;4.15;;;12.00;99.90;;;;;;4978546;28;20053;-88
2022/08/28 02:25:02;;;;;;;11.45;4.25;;;11.90;99.90;;;;;;4978068;28;20124;-87
2022/08/28 02:27:29;;;;;;;11.50;3.80;;;11.90;99.90;;;;;;4978527;28;20078;-88
2022/08/28 02:29:56;;;;;;;16.27;4.20;;;11.90;99.90;;;;;;4978718;28;20385;-88
2022/08/28 02:32:22;;;;;;;11.13;3.63;;;11.90;99.90;;;;;;4977571;28;20042;-88
2022/08/28 02:34:47;;;;;;;12.15;4.00;;;12.20;99.90;;;;;;4995853;28;20472;-88
2022/08/28 02:37:13;;;;;;;13.90;4.35;;;11.80;99.90;;;;;;4996593;28;20039;-88
2022/08/28 02:39:39;;;;;;;13.52;3.97;;;11.90;99.90;;;;;;4995437;28;20092;-88
2022/08/28 02:42:06;;;;;;;12.60;4.38;;;11.90;99.90;;;;;;4978162;28;20123;-88
2022/08/28 02:44:31;;;;;;;12.23;4.25;;;11.80;99.90;;;;;;4977648;28;20058;-88
2022/08/28 02:46:57;;;;;;;12.07;4.10;;;11.80;99.90;;;;;;4995623;28;20034;-88
2022/08/28 02:49:23;;;;;;;12.23;4.07;;;11.80;99.90;;;;;;4977836;28;20523;-88
2022/08/28 02:51:49;;;;;;;12.20;4.30;;;11.70;99.90;;;;;;4977281;28;20045;-87
2022/08/28 02:54:15;;;;;;;14.23;4.20;;;11.80;99.90;;;;;;4995472;28;20039;-88
2022/08/28 02:56:41;;;;;;;14.55;4.35;;;11.80;99.90;;;;;;4978633;28;20116;-88
2022/08/28 02:59:06;;;;;;;10.98;4.30;;;11.90;99.90;;;;;;4977499;28;20049;-88
2022/08/28 03:01:33;;;;;;;13.25;4.70;;;12.50;99.90;;;;;;4978286;28;20050;-88
2022/08/28 03:04:01;;;;;;;11.90;4.25;;;12.40;99.90;;;;;;4978082;28;20050;-88
2022/08/28 03:06:28;;;;;;;12.98;4.40;;;11.70;99.90;;;;;;4977381;28;20142;-88
2022/08/28 03:08:54;;;;;;;14.05;4.20;;;11.70;99.90;;;;;;4998341;28;20054;-88
2022/08/28 03:11:20;;;;;;;12.05;4.30;;;11.70;99.90;;;;;;4983288;28;20070;-88
2022/08/28 03:13:48;;;;;;;11.75;4.35;;;11.70;99.90;;;;;;4994580;28;20052;-87
2022/08/28 03:16:13;;;;;;;13.15;4.10;;;11.70;99.90;;;;;;4995365;28;20081;-88
2022/08/28 03:18:40;;;;;;;10.55;3.83;;;11.70;99.90;;;;;;4996245;28;20042;-88
2022/08/28 03:21:06;;;;;;;16.08;4.35;;;11.70;99.90;;;;;;4977270;28;20061;-88
2022/08/28 03:23:32;;;;;;;12.38;4.00;;;11.60;99.90;;;;;;4977490;28;20096;-88
2022/08/28 03:26:05;;;;;;;12.20;4.25;;;11.70;99.90;;;;;;4977453;28;20145;-88
2022/08/28 03:28:34;;;;;;;12.35;4.18;;;11.60;99.90;;;;;;4977363;28;20077;-88
2022/08/28 03:30:59;;;;;;;9.90;3.55;;;11.90;99.90;;;;;;4977095;28;20093;-88
2022/08/28 03:33:26;;;;;;;16.50;4.78;;;11.60;99.90;;;;;;4977032;28;20133;-88
2022/08/28 03:35:52;;;;;;;11.73;3.75;;;11.60;99.90;;;;;;4994055;28;20047;-88
2022/08/28 03:38:20;;;;;;;13.07;4.22;;;12.20;99.90;;;;;;4978645;28;20042;-88
2022/08/28 03:40:46;;;;;;;11.75;4.10;;;11.60;99.90;;;;;;4990221;28;20051;-88
2022/08/28 03:43:14;;;;;;;12.98;4.03;;;11.60;99.90;;;;;;5008816;28;20129;-88
2022/08/28 03:45:48;;;;;;;15.88;4.15;;;11.60;99.90;;;;;;4978801;28;20469;-88
2022/08/28 03:48:14;;;;;;;12.05;3.88;;;11.50;99.90;;;;;;5016582;28;20042;-88
2022/08/28 03:50:40;;;;;;;12.77;3.67;;;11.60;99.90;;;;;;5001605;28;20053;-88
2022/08/28 03:53:05;;;;;;;12.18;4.07;;;12.10;99.90;;;;;;4980586;28;20490;-88
2022/08/28 03:55:31;;;;;;;11.63;3.70;;;11.50;99.90;;;;;;4994586;28;20489;-88
2022/08/28 03:57:56;;;;;;;12.13;3.72;;;11.50;99.90;;;;;;4994608;28;20137;-88
2022/08/28 04:00:22;;;;;;;12.57;4.18;;;11.50;99.90;;;;;;4974993;28;20192;-87
2022/08/28 04:02:48;;;;;;;10.25;3.22;;;11.60;99.90;;;;;;4994042;28;20042;-87
2022/08/28 04:05:16;;;;;;;10.70;3.63;;;11.50;99.90;;;;;;4975964;28;20613;-87
2022/08/28 04:07:41;;;;;;;11.23;3.75;;;11.50;99.90;;;;;;4976597;28;20050;-88
2022/08/28 04:10:08;;;;;;;11.70;3.60;;;11.50;99.90;;;;;;4976315;28;20042;-88
2022/08/28 04:12:34;;;;;;;11.95;3.35;;;11.50;99.90;;;;;;4993813;28;20883;-87
2022/08/28 04:15:00;;;;;;;11.25;3.00;;;11.50;99.90;;;;;;4994723;28;20038;-87
2022/08/28 04:17:26;;;;;;;11.32;3.50;;;11.40;99.90;;;;;;4975987;28;20429;-87
2022/08/28 04:19:53;;;;;;;12.93;3.72;;;11.40;99.90;;;;;;4994294;28;20494;-88
2022/08/28 04:22:18;;;;;;;11.52;3.58;;;11.40;99.90;;;;;;4976488;28;20438;-88
2022/08/28 04:24:44;;;;;;;11.77;3.85;;;11.50;99.90;;;;;;4993401;28;20116;-88
2022/08/28 04:27:09;;;;;;;10.07;3.42;;;11.40;99.90;;;;;;4976769;28;20085;-88
2022/08/28 04:29:35;;;;;;;12.75;3.63;;;11.40;99.90;;;;;;4976374;28;20093;-88
2022/08/28 04:32:01;;;;;;;13.18;3.60;;;11.40;99.90;;;;;;4975737;28;20509;-87
2022/08/28 04:34:27;;;;;;;10.88;3.50;;;11.30;99.90;;;;;;4993871;28;20050;-88
2022/08/28 04:36:53;;;;;;;13.00;3.63;;;11.40;99.90;;;;;;4976489;28;20046;-88
2022/08/28 04:39:19;;;;;;;8.82;3.40;;;11.30;99.90;;;;;;4976103;28;20046;-88
2022/08/28 04:41:44;;;;;;;10.82;3.30;;;11.30;99.90;;;;;;4993841;28;20054;-88
2022/08/28 04:44:10;;;;;;;11.32;3.70;;;11.30;99.90;;;;;;4975908;28;20395;-87
2022/08/28 04:46:36;;;;;;;12.48;3.70;;;11.30;99.90;;;;;;4976522;28;20057;-88
2022/08/28 04:49:03;;;;;;;11.77;3.50;;;11.30;99.90;;;;;;4994013;28;20463;-88
2022/08/28 04:51:29;;;;;;;12.63;3.40;;;11.30;99.90;;;;;;4992490;28;20051;-88
2022/08/28 04:53:55;;;;;;;11.98;3.22;;;11.30;99.90;;;;;;4993768;28;20038;-88
2022/08/28 04:56:22;;;;;;;9.85;3.33;;;11.30;99.90;;;;;;4975988;28;20045;-88
2022/08/28 04:58:47;;;;;;;11.73;3.10;;;11.30;99.90;;;;;;4975750;28;20438;-88
2022/08/28 05:01:19;;;;;;;13.73;3.63;;;11.30;99.90;;;;;;4993612;28;20046;-88
2022/08/28 05:03:46;;;;;;;10.95;3.50;;;11.40;99.90;;;;;;4976332;28;20043;-88
2022/08/28 05:06:14;;;;;;;11.48;3.63;;;11.40;99.90;;;;;;4995440;28;20399;-88
2022/08/28 05:08:40;;;;;;;9.48;3.30;;;11.30;99.90;;;;;;4997898;28;20042;-88
2022/08/28 05:11:17;;;;;;;11.80;3.30;;;11.40;99.90;;;;;;4997863;28;20096;-88
2022/08/28 05:13:43;;;;;;;11.57;3.28;;;11.40;99.90;;;;;;4980459;28;20097;-88
2022/08/28 05:16:09;;;;;;;16.58;3.80;;;11.40;99.90;;;;;;4981310;28;20041;-88
2022/08/28 05:18:35;;;;;;;11.80;3.40;;;11.50;99.90;;;;;;4993128;28;20069;-88
2022/08/28 05:21:01;;;;;;;9.65;3.00;;;12.30;99.90;;;;;;4995016;28;20066;-88
2022/08/28 05:23:27;;;;;;;10.32;3.20;;;11.50;99.90;;;;;;4987779;28;20042;-88
2022/08/28 05:25:54;;;;;;;9.07;3.10;;;11.60;99.90;;;;;;5011809;28;20047;-88
2022/08/28 05:28:20;;;;;;;9.02;3.08;;;11.60;99.90;;;;;;5000554;28;20058;-88
2022/08/28 05:30:46;;;;;;;12.18;3.38;;;11.80;99.90;;;;;;4997483;28;20058;-88
2022/08/28 05:33:14;;;;;;;13.38;3.35;;;11.60;99.90;;;;;;4980529;28;20371;-88
2022/08/28 05:35:42;;;;;;;11.48;3.35;;;11.70;99.90;;;;;;4979243;28;20177;-88
2022/08/28 05:38:08;;;;;;;13.48;3.78;;;11.80;99.90;;;;;;4979444;28;20042;-88
2022/08/28 05:40:40;;;;;;;13.82;3.90;;;12.50;99.90;;;;;;4978282;28;20414;-88
2022/08/28 05:43:06;;;;;;;16.35;3.30;;;12.10;99.90;;;;;;4997143;28;20057;-88
2022/08/28 05:45:31;;;;;;;11.50;3.50;;;12.20;99.90;;;;;;4979182;28;20042;-88
2022/08/28 05:47:57;;;;;;;9.65;2.90;;;12.30;99.90;;;;;;4982449;28;20046;-88
2022/08/28 05:50:23;;;;;;;10.13;3.35;;;12.30;99.90;;;;;;4997787;28;20054;-88
2022/08/28 05:52:48;;;;;;;8.93;3.20;;;12.30;99.90;;;;;;4984745;28;20038;-88
2022/08/28 05:55:14;;;;;;;12.13;3.33;;;12.40;99.90;;;;;;4996445;28;20046;-88
2022/08/28 05:57:40;;;;;;;9.35;3.10;;;12.50;99.90;;;;;;4984067;28;20050;-88
2022/08/28 06:00:11;;;;;;;12.45;3.13;;;12.60;99.90;;;;;;4979189;28;20079;-88
2022/08/28 06:02:37;;;;;;;11.77;3.15;;;12.60;99.90;;;;;;4996026;28;20034;-88
2022/08/28 06:05:03;;;;;;;11.68;3.22;;;13.30;99.90;;;;;;4979238;28;20570;-88
2022/08/28 06:07:28;;;;;;;9.25;2.95;;;12.70;99.90;;;;;;4980419;28;20053;-89
2022/08/28 06:09:54;;;;;;;10.57;2.80;;;12.80;99.90;;;;;;4986921;28;20105;-88
2022/08/28 06:12:20;;;;;;;10.63;3.00;;;13.50;99.90;;;;;;4999572;28;20437;-88
2022/08/28 06:14:46;;;;;;;11.57;2.83;;;13.00;99.90;;;;;;4978802;28;20050;-88
2022/08/28 06:17:11;;;;;;;12.75;3.28;;;12.90;99.90;;;;;;4995690;28;20046;-89
2022/08/28 06:19:37;;;;;;;10.57;2.55;;;13.10;99.90;;;;;;4978448;28;20050;-88
2022/08/28 06:22:04;;;;;;;12.82;2.80;;;13.20;99.90;;;;;;4978938;28;20046;-89
2022/08/28 06:24:30;;;;;;;10.55;2.85;;;13.20;99.90;;;;;;4994993;28;20070;-88
2022/08/28 06:26:56;;;;;;;9.95;2.92;;;13.30;99.90;;;;;;4979988;28;20137;-88
2022/08/28 06:29:22;;;;;;;10.85;2.88;;;13.30;99.90;;;;;;4979760;28;20139;-88
2022/08/28 06:31:59;;;;;;;11.73;2.88;;;13.30;99.90;;;;;;4980731;28;20050;-89
2022/08/28 06:34:26;;;;;;;8.55;2.85;;;13.90;99.90;;;;;;4980675;28;20149;-88
2022/08/28 06:36:52;;;;;;;10.65;2.92;;;13.40;99.90;;;;;;4980577;28;20118;-88
2022/08/28 06:39:19;;;;;;;11.55;2.80;;;13.50;99.90;;;;;;4981389;28;20454;-88
2022/08/28 06:41:44;;;;;;;11.55;3.13;;;13.60;99.90;;;;;;4983684;28;20082;-88
2022/08/28 06:44:12;;;;;;;10.90;2.88;;;13.70;99.90;;;;;;5000870;28;20371;-88
2022/08/28 06:46:39;;;;;;;12.27;3.13;;;13.80;99.90;;;;;;5002451;28;20046;-89
2022/08/28 06:49:07;;;;;;;10.50;2.97;;;14.10;99.90;;;;;;4983559;28;20042;-89
2022/08/28 06:51:35;;;;;;;10.45;2.78;;;13.90;99.90;;;;;;4980419;28;20492;-88
2022/08/28 06:54:01;;;;;;;8.80;2.40;;;14.10;99.90;;;;;;4982006;28;20043;-88
2022/08/28 06:56:27;;;;;;;8.93;2.40;;;14.20;99.90;;;;;;5013308;28;20033;-88
2022/08/28 06:58:55;;;;;;;13.60;3.00;;;14.30;99.90;;;;;;5019729;28;20019;-92
2022/08/28 07:01:28;;;;;;;9.65;3.00;;;15.00;99.90;;;;;;5010385;28;20046;-93
2022/08/28 07:03:59;;;;;;;10.93;3.20;;;14.60;99.90;;;;;;4994074;28;20072;-93
2022/08/28 07:06:25;;;;;;;13.60;2.42;;;15.40;99.90;;;;;;4994107;28;20133;-92
2022/08/28 07:08:51;;;;;;;9.93;3.05;;;14.80;99.90;;;;;;5001519;28;20039;-94
2022/08/28 07:11:34;;;;;;;10.82;2.60;;;15.50;99.90;;;;;;4999875;28;20073;-93
2022/08/28 07:14:02;;;;;;;12.40;2.72;;;15.80;99.90;;;;;;4986886;28;20532;-93
2022/08/28 07:16:41;;;;;;;8.65;2.65;;;15.30;99.90;;;;;;4999649;28;20038;-94
2022/08/28 07:19:09;;;;;;;8.15;2.50;;;16.40;99.90;;;;;;4999063;28;20050;-92
2022/08/28 07:21:57;;;;;;;10.10;2.58;;;15.80;99.90;;;;;;4981151;28;20482;-93
2022/08/28 07:24:31;;;;;;;8.18;2.20;;;15.80;99.90;;;;;;4998845;28;20057;-92
2022/08/28 07:26:58;;;;;;;10.80;2.20;;;16.20;99.90;;;;;;4998809;28;20042;-93
2022/08/28 07:29:24;;;;;;;10.20;2.80;;;16.80;99.90;;;;;;4996862;28;20129;-92
2022/08/28 07:32:07;;;;;;;9.32;2.30;;;16.40;99.90;;;;;;4998752;28;20082;-92
2022/08/28 07:34:37;;;;;;;10.70;2.13;;;16.10;99.90;;;;;;4979258;28;20189;-93
2022/08/28 07:37:05;;;;;;;11.23;2.53;;;17.00;99.90;;;;;;4997317;28;20065;-93
2022/08/28 07:39:40;;;;;;;9.45;2.38;;;16.70;99.90;;;;;;4994628;28;20042;-92
2022/08/28 07:42:06;;;;;;;13.07;2.80;;;16.90;99.90;;;;;;4977658;28;20490;-94
2022/08/28 07:44:49;;;;;;;9.45;2.20;;;16.40;99.90;;;;;;4986429;28;20065;-92
2022/08/28 07:47:17;;;;;;;10.10;2.40;;;16.70;99.90;;;;;;4977017;28;20046;-93
2022/08/28 07:50:01;;;;;;;9.80;2.38;;;16.80;99.90;;;;;;4977247;28;20043;-91
2022/08/28 07:52:42;;;;;;;7.93;1.90;;;17.50;99.90;;;;;;4982518;28;20039;-92
2022/08/28 07:55:08;;;;;;;10.90;2.30;;;17.60;99.90;;;;;;4998734;28;20050;-92
2022/08/28 07:58:02;;;;;;;9.73;2.40;;;17.10;99.90;;;;;;4977315;28;20061;-91
2022/08/28 08:00:37;;;;;;;;;;;17.20;99.90;;;;;;4977805;28;20128;-93
2022/08/28 08:03:03;;;;;;;10.45;2.25;;;17.30;99.90;;;;;;4993863;28;19968;-93
2022/08/28 08:05:29;;;;;;;9.38;2.00;;;17.90;99.90;;;;;;4994141;28;20072;-92
2022/08/28 08:07:55;;;;;;;7.65;2.10;;;17.70;99.90;;;;;;4994099;28;20115;-92
2022/08/28 08:10:29;;;;;;;11.50;2.67;;;17.50;99.90;;;;;;4993494;28;20054;-92
2022/08/28 08:12:55;;;;;;;12.65;2.20;;;18.20;99.90;;;;;;4994884;28;20046;-91
2022/08/28 08:15:21;;;;;;;9.35;2.30;;;18.20;99.90;;;;;;4993365;28;20097;-91
2022/08/28 08:17:46;;;;;;;9.02;1.98;;;18.50;99.90;;;;;;4994158;28;20038;-91
2022/08/28 08:20:27;;;;;;;7.95;2.03;;;18.60;99.90;;;;;;4976692;28;20050;-93
2022/08/28 08:22:53;;;;;;;8.88;2.00;;;18.20;99.90;;;;;;4975822;28;20554;-92
2022/08/28 08:25:18;;;;;;;10.82;2.33;;;18.30;99.90;;;;;;4976194;28;20138;-92
2022/08/28 08:27:45;;;;;;;8.15;2.47;;;19.30;99.90;;;;;;4977247;28;20133;-92
2022/08/28 08:30:26;;;;;;;11.70;2.40;;;19.30;99.90;;;;;;4977371;28;20058;-92
2022/08/28 08:32:52;;;;;;;10.07;2.10;;;19.50;99.90;;;;;;4995968;28;20068;-90
2022/08/28 08:36:13;;;;;;;7.75;2.00;;;19.60;99.90;;;;;;5008234;28;20050;-91
2022/08/28 08:38:40;;;;;;;8.48;2.17;;;18.70;99.90;;;;;;4976964;28;20058;-90
2022/08/28 08:41:33;;;;;;;8.35;2.15;;;19.30;99.90;;;;;;5033449;23;20051;-92
2022/08/28 08:44:23;;;;;;;9.60;2.50;;;18.50;99.90;;;;;;4969299;28;20121;-92
2022/08/28 08:47:11;;;;;;;11.30;2.28;;;18.50;99.90;;;;;;4957504;28;20054;-92
2022/08/28 08:49:59;;;;;;;9.57;2.10;;;18.60;99.90;;;;;;4974632;28;20487;-92
2022/08/28 08:52:27;;;;;;;9.80;2.55;;;17.80;99.90;;;;;;4973612;28;20077;-91
2022/08/28 08:55:18;;;;;;;11.27;2.40;;;18.90;99.90;;;;;;4957273;28;20076;-90
2022/08/28 08:58:05;;;;;;;8.18;1.80;;;19.30;99.90;;;;;;4956577;28;20132;-92
2022/08/28 09:00:49;;;;;;;11.35;2.13;;;19.50;99.90;;;;;;4956903;28;20130;-94
2022/08/28 09:03:20;;;;;;;;;;;19.60;99.90;;;;;;4974672;28;20380;-92
2022/08/28 09:06:09;;;;;;;8.80;2.30;;;19.50;99.90;;;;;;4956671;28;19926;-92
2022/08/28 09:08:44;;;;;;;7.15;1.90;;;19.60;99.90;;;;;;4981984;28;20062;-91
2022/08/28 09:11:46;;;;;;;8.27;2.03;;;19.60;99.90;;;;;;4994675;28;20058;-91
2022/08/28 09:14:42;;;;;;;8.07;1.88;;;19.70;99.90;;;;;;4958413;28;20503;-92
2022/08/28 09:17:18;;;;;;;7.05;1.90;;;19.80;99.90;;;;;;4936317;28;20054;-91
2022/08/28 09:19:43;;;;;;;7.65;1.90;;;20.70;99.90;;;;;;4957194;28;20050;-91
2022/08/28 09:22:24;;;;;;;9.00;2.53;;;20.20;99.90;;;;;;4957548;28;20479;-93
2022/08/28 09:24:50;;;;;;;7.15;1.88;;;21.00;99.90;;;;;;4957142;28;20073;-92
2022/08/28 09:27:51;;;;;;;7.90;1.92;;;20.60;99.90;;;;;;4955620;28;20051;-92
2022/08/28 09:30:37;;;;;;;10.40;2.10;;;19.80;99.90;;;;;;4973706;28;20043;-91
2022/08/28 09:33:03;;;;;;;9.63;2.20;;;19.90;99.90;;;;;;4955947;28;20105;-91
2022/08/28 09:35:33;;;;;;;8.95;2.20;;;19.60;99.90;;;;;;4956635;28;20406;-91
2022/08/28 09:38:23;;;;;;;8.25;2.10;;;20.70;99.90;;;;;;4965027;28;20039;-92
2022/08/28 09:43:45;;;;;;;7.60;2.08;;;20.20;99.90;;;;;;4974494;28;20078;-92
2022/08/28 09:46:37;;;;;;;9.10;1.80;;;21.20;99.90;;;;;;4977446;28;20046;-92
2022/08/28 09:49:13;;;;;;;8.27;2.20;;;20.00;99.90;;;;;;4967027;28;20069;-92
2022/08/28 09:51:51;;;;;;;8.43;2.30;;;19.70;99.90;;;;;;4977885;28;20390;-91
2022/08/28 09:54:43;;;;;;;9.60;2.25;;;20.20;99.90;;;;;;4977059;28;20478;-93
2022/08/28 09:57:12;;;;;;;8.45;2.35;;;20.10;99.90;;;;;;4977868;28;20038;-90
2022/08/28 09:59:37;;;;;;;10.20;2.03;;;20.70;99.90;;;;;;4979238;28;20523;-91
2022/08/28 10:02:38;;;;;;;7.05;1.95;;;20.50;99.90;;;;;;4962913;28;20035;-90
2022/08/28 10:05:15;;;;;;;8.80;2.33;;;20.80;99.90;;;;;;4961878;28;20061;-91
2022/08/28 10:07:56;;;;;;;10.27;2.33;;;21.20;99.90;;;;;;4981574;28;20082;-91
2022/08/28 10:10:57;;;;;;;9.55;2.30;;;20.90;99.40;;;;;;4968423;28;20043;-92
2022/08/28 10:13:32;;;;;;;7.25;2.22;;;20.50;99.90;;;;;;4960172;28;20134;-93
2022/08/28 10:16:30;;;;;;;15.50;2.60;;;20.50;99.90;;;;;;4960927;28;20050;-92
2022/08/28 10:19:14;;;;;;;9.02;2.22;;;20.70;99.90;;;;;;4968645;28;20086;-92
2022/08/28 10:22:16;;;;;;;10.13;2.30;;;20.70;99.90;;;;;;4971726;28;20133;-92
2022/08/28 10:25:05;;;;;;;7.95;2.20;;;20.90;99.90;;;;;;4973213;28;20268;-92
2022/08/28 10:27:54;;;;;;;9.23;2.13;;;21.40;99.90;;;;;;4977288;28;20085;-90
2022/08/28 10:30:22;;;;;;;8.48;1.95;;;21.70;99.90;;;;;;4947386;28;20089;-91
2022/08/28 10:33:29;;;;;;;31.45;2.88;;;21.40;99.40;;;;;;4977189;28;20093;-93
2022/08/28 10:36:04;;;;;;;8.52;2.00;;;21.30;97.70;;;;;;4976037;28;20043;-92
2022/08/28 10:38:42;;;;;;;8.95;2.42;;;21.30;96.60;;;;;;4976878;28;20038;-92
2022/08/28 10:41:20;;;;;;;7.85;2.15;;;21.50;97.40;;;;;;4959287;28;20511;-92
2022/08/28 10:43:50;;;;;;;8.30;2.28;;;21.80;96.60;;;;;;4976290;28;20320;-91
2022/08/28 10:46:41;;;;;;;7.05;2.00;;;22.00;97.70;;;;;;4959429;28;20070;-91
2022/08/28 10:50:00;;;;;;;7.68;2.10;;;23.00;97.20;;;;;;4959611;28;20047;-91
2022/08/28 10:52:32;;;;;;;8.63;2.22;;;22.00;96.80;;;;;;4987897;23;20434;-92
2022/08/28 10:55:11;;;;;;;7.80;1.98;;;21.60;97.40;;;;;;4992048;28;20442;-91
2022/08/28 10:57:47;;;;;;;10.38;2.65;;;21.20;97.70;;;;;;4995398;28;20038;-90
2022/08/28 11:00:21;;;;;;;10.00;2.20;;;20.80;97.90;;;;;;4978309;28;20049;-92
2022/08/28 11:03:00;;;;;;;9.38;2.53;;;21.00;98.20;;;;;;4977116;28;20054;-92
2022/08/28 11:05:56;;;;;;;7.63;2.20;;;21.30;98.00;;;;;;4994929;28;20061;-91
2022/08/28 11:08:38;;;;;;;8.57;2.28;;;21.70;98.10;;;;;;4981183;28;20133;-92
2022/08/28 11:11:25;;;;;;;6.53;2.05;;;22.80;97.70;;;;;;4994931;28;20042;-91
2022/08/28 11:14:00;;;;;;;9.30;2.20;;;22.50;97.60;;;;;;4978578;28;20058;-91
2022/08/28 11:16:45;;;;;;;9.18;2.20;;;22.70;96.50;;;;;;4977984;28;20074;-92
2022/08/28 11:19:36;;;;;;;6.22;2.03;;;22.30;94.50;;;;;;4977293;28;20035;-91
2022/08/28 11:22:01;;;;;;;6.72;2.20;;;21.50;96.20;;;;;;4995574;28;20051;-92
2022/08/28 11:24:47;;;;;;;7.93;2.10;;;21.60;96.20;;;;;;4995180;28;20049;-91
2022/08/28 11:27:35;;;;;;;7.28;2.20;;;21.40;95.80;;;;;;4977301;28;20078;-91
2022/08/28 11:30:21;;;;;;;7.70;2.17;;;22.00;96.00;;;;;;4994975;28;20054;-92
2022/08/28 11:32:50;;;;;;;13.68;2.38;;;23.10;96.00;;;;;;4977446;28;20046;-93
2022/08/28 11:35:28;;;;;;;10.02;2.15;;;22.40;95.30;;;;;;4985266;28;20054;-90
2022/08/28 11:37:55;;;;;;;9.40;2.13;;;22.20;95.30;;;;;;4979076;28;20077;-90
2022/08/28 11:40:27;;;;;;;8.68;2.22;;;22.30;96.10;;;;;;4984041;28;20055;-90
2022/08/28 11:43:15;;;;;;;8.10;2.30;;;21.70;95.60;;;;;;4997918;28;20046;-90
2022/08/28 11:45:41;;;;;;;6.65;1.88;;;21.50;95.60;;;;;;4983473;28;20046;-90
2022/08/28 11:48:27;;;;;;;8.57;2.40;;;21.70;96.00;;;;;;4998641;28;20046;-91
2022/08/28 11:51:19;;;;;;;8.75;2.10;;;22.80;95.60;;;;;;4951319;28;20096;-93
2022/08/28 11:54:26;;;;;;;7.10;2.03;;;22.40;93.50;;;;;;4976315;23;20050;-91
2022/08/28 11:57:40;;;;;;;8.65;2.28;;;22.30;93.70;;;;;;4987749;28;20050;-92
2022/08/28 12:00:27;;;;;;;9.20;2.30;;;22.70;94.60;;;;;;4989631;23;20046;-91
2022/08/28 12:03:05;;;;;;;11.68;2.30;;;22.70;94.30;;;;;;4995036;28;20133;-92
2022/08/28 12:05:31;;;;;;;6.85;2.10;;;22.70;93.00;;;;;;4995017;28;20053;-92
2022/08/28 12:07:59;;;;;;;7.65;2.10;;;22.20;93.40;;;;;;4999339;28;20121;-92
2022/08/28 12:10:25;;;;;;;8.02;2.10;;;21.70;93.40;;;;;;4980566;28;20050;-92
2022/08/28 12:12:53;;;;;;;8.73;2.40;;;21.60;93.90;;;;;;5007962;28;20074;-92
2022/08/28 12:15:33;;;;;;;10.20;2.47;;;21.40;94.00;;;;;;5001360;28;20101;-92
2022/08/28 12:18:11;;;;;;;7.40;2.13;;;21.50;93.40;;;;;;4979096;28;20046;-92
2022/08/28 12:21:01;;;;;;;7.15;1.98;;;22.10;93.20;;;;;;4977385;28;20054;-92
2022/08/28 12:23:36;;;;;;;8.23;2.20;;;22.40;91.50;;;;;;4979392;28;20051;-93
2022/08/28 12:26:25;;;;;;;8.90;2.28;;;22.80;92.10;;;;;;4978028;28;20617;-93
2022/08/28 12:28:56;;;;;;;7.43;2.20;;;23.10;90.90;;;;;;4976276;28;20482;-92
2022/08/28 12:32:10;;;;;;;7.45;2.00;;;22.80;92.20;;;;;;4994885;28;20050;-92
2022/08/28 12:34:55;;;;;;;9.77;2.22;;;22.90;92.10;;;;;;4976605;28;20038;-92
2022/08/28 12:37:32;;;;;;;7.30;2.10;;;22.10;92.20;;;;;;4975945;28;20073;-92
2022/08/28 12:40:18;;;;;;;8.93;2.10;;;21.80;92.80;;;;;;4994200;28;20077;-92
2022/08/28 12:43:06;;;;;;;7.68;2.15;;;22.30;93.30;;;;;;4976314;28;20100;-92
2022/08/28 12:45:57;;;;;;;8.13;2.10;;;22.90;92.40;;;;;;4976319;28;20050;-90
2022/08/28 12:48:24;;;;;;;8.52;2.20;;;22.80;91.80;;;;;;4976541;28;20462;-93
2022/08/28 12:51:13;;;;;;;9.13;2.30;;;22.80;92.00;;;;;;4993035;28;20068;-90
2022/08/28 12:53:57;;;;;;;9.50;2.35;;;22.30;92.10;;;;;;4993823;28;20053;-90
2022/08/28 12:56:32;;;;;;;10.18;2.20;;;22.00;92.10;;;;;;4993525;28;20045;-91
2022/08/28 12:59:37;;;;;;;11.25;2.40;;;21.60;92.40;;;;;;4976476;28;20050;-91
2022/08/28 13:02:32;;;;;;;9.32;2.22;;;21.30;92.50;;;;;;4993523;28;20038;-90
2022/08/28 13:05:29;;;;;;;8.13;2.20;;;21.00;93.10;;;;;;4975238;28;20046;-92
2022/08/28 13:08:10;;;;;;;7.68;2.05;;;21.60;93.20;;;;;;4976692;28;20054;-90
2022/08/28 13:10:54;;;;;;;8.52;2.72;;;23.00;93.20;;;;;;4975212;28;20062;-90
2022/08/28 13:13:31;;;;;;;8.60;2.40;;;22.80;92.70;;;;;;4976446;28;20081;-91
2022/08/28 13:16:00;;;;;;;7.63;2.20;;;22.60;92.30;;;;;;4997567;28;20061;-91